Nearby METAR Reports

 

EGTE - Exeter Airport, United Kingdom
Distance from station: S 19km
Updated: 18/06/2021 18:50
NOT Current
Mostly cloudy
Mostly cloudy
 Wind from N
Wind: N 19 km/h
Temperature: 17°C
Dew Point: 11°C
Humidity: 68%
Barometer: 1014 hPa
Clouds: Mostly cloudy
Visibility: 10 km
Cloud details: Few Clouds 792 m
Mostly cloudy 1219 m
2021/06/18 17:50 EGTE 181750Z 01010KT 9999 FEW026 BKN040 17/11 Q1014
EGDY - Yeovilton (navy), United Kingdom
Distance from station: ENE 55km
Updated: 18/06/2021 21:50
Overcast
Overcast
 Wind from N
Wind: N 13 km/h
Temperature: 14°C
Dew Point: 11°C
Humidity: 82%
Barometer: 1015 hPa
Clouds: Overcast
Visibility: 10 km
Cloud details: Overcast 457 m
2021/06/18 20:50 EGDY 182050Z AUTO 35007KT 9999 OVC015/// 14/11 Q1015
 
EGFF - Cardiff-Wales Ar, United Kingdom
Distance from station: N 56km
Updated: 18/06/2021 21:50
Overcast
Overcast
 Wind from ENE
Wind: ENE 7 km/h
Temperature: 15°C
Dew Point: 11°C
Humidity: 77%
Barometer: 1016 hPa
Clouds: Overcast
Visibility: 10 km
Cloud details: Overcast 975 m
2021/06/18 20:50 EGFF 182050Z AUTO 06004KT 9999 OVC032 15/11 Q1016
EGDX - St Athan Raf, United Kingdom
Distance from station: N 58km
Updated: 01/04/2019 13:50
NOT Current
Clear
Clear
 Wind from E
Wind: E 15 km/h
Temperature: 11°C
Dew Point: 5°C
Humidity: 67%
Barometer: 1019 hPa
Clouds: Clear
Visibility: 10 km
2019/04/01 12:50 EGDX 011250Z AUTO 10008KT 9999 NCD 11/05 Q1019
 
EGGD - Bristol/Lulsgate, United Kingdom
Distance from station: NE 71km
Updated: 18/06/2021 21:50
Overcast
Overcast
 Wind from N
Wind: N 17 km/h
Temperature: 13°C
Dew Point: 11°C
Humidity: 88%
Barometer: 1015 hPa
Clouds: Overcast
Visibility: 10 km
Cloud details: Overcast 335 m
2021/06/18 20:50 EGGD 182050Z AUTO 01009KT 9999 OVC011 13/11 Q1015